createdAt,value
2023-01-10T00:03:02.112Z,628.44444
2023-01-10T00:08:03.737Z,613.56522
2023-01-10T00:13:05.398Z,636.13483
2023-01-10T00:18:07.058Z,566.22222
2023-01-10T00:23:08.650Z,547.92157
2023-01-10T00:28:10.271Z,553.90099
2023-01-10T00:33:11.906Z,542.05825
2023-01-10T00:38:13.498Z,504
2023-01-10T00:43:15.177Z,542.05825
2023-01-10T00:48:16.867Z,560
2023-01-10T00:53:18.573Z,572.57143
2023-01-10T00:58:20.238Z,599.31915
2023-01-10T01:03:21.969Z,613.56522
2023-01-10T01:08:23.601Z,599.31915
2023-01-10T01:13:25.258Z,599.31915
2023-01-10T01:18:26.904Z,620.92308
2023-01-10T01:23:28.554Z,606.36559
2023-01-10T01:28:30.367Z,620.92308
2023-01-10T01:33:31.944Z,620.92308
2023-01-10T01:38:33.610Z,628.44444
2023-01-10T01:43:35.221Z,628.44444
2023-01-10T01:48:36.943Z,613.56522
2023-01-10T01:53:38.540Z,592.42105
2023-01-10T01:58:40.131Z,620.92308
2023-01-10T02:03:42.406Z,628.44444
2023-01-10T02:08:44.025Z,652.04598
2023-01-10T02:13:45.606Z,668.70588
2023-01-10T02:18:47.298Z,668.70588
2023-01-10T02:23:49.047Z,660.27907
2023-01-10T02:28:50.674Z,644
2023-01-10T02:33:52.327Z,644
2023-01-10T02:38:53.956Z,652.04598
2023-01-10T02:43:55.601Z,660.27907
2023-01-10T02:48:57.254Z,660.27907
2023-01-10T02:53:58.883Z,644
2023-01-10T02:59:00.638Z,620.92308
2023-01-10T03:04:02.426Z,620.92308
2023-01-10T03:09:04.075Z,652.04598
2023-01-10T03:14:05.716Z,652.04598
2023-01-10T03:19:07.329Z,668.70588
2023-01-10T03:24:08.924Z,652.04598
2023-01-10T03:29:10.646Z,652.04598
2023-01-10T03:34:12.243Z,704.49383
2023-01-10T03:39:13.815Z,686.16867
2023-01-10T03:44:15.477Z,660.27907
2023-01-10T03:49:17.108Z,668.70588
2023-01-10T03:54:18.831Z,677.33333
2023-01-10T03:59:20.542Z,668.70588
2023-01-10T04:04:22.266Z,668.70588
2023-01-10T04:09:23.993Z,668.70588
2023-01-10T04:14:25.667Z,606.36559
2023-01-10T04:19:27.279Z,613.56522
2023-01-10T04:24:28.968Z,606.36559
2023-01-10T04:29:30.566Z,599.31915
2023-01-10T04:34:32.319Z,592.42105
2023-01-10T04:39:34.041Z,599.31915
2023-01-10T04:44:35.601Z,620.92308
2023-01-10T04:49:37.213Z,620.92308
2023-01-10T04:54:38.839Z,579.05155
2023-01-10T04:59:40.499Z,572.57143
2023-01-10T05:04:42.093Z,613.56522
2023-01-10T05:09:43.739Z,592.42105
2023-01-10T05:14:45.385Z,579.05155
2023-01-10T05:19:47.012Z,579.05155
2023-01-10T05:24:48.685Z,585.66667
2023-01-10T05:29:50.368Z,592.42105
2023-01-10T05:34:51.976Z,592.42105
2023-01-10T05:39:53.804Z,572.57143
2023-01-10T05:44:55.496Z,572.57143
2023-01-10T05:49:57.073Z,579.05155
2023-01-10T05:54:58.859Z,585.66667
2023-01-10T06:00:00.624Z,579.05155
2023-01-10T06:05:02.561Z,572.57143
2023-01-10T06:10:04.241Z,572.57143
2023-01-10T06:15:05.854Z,572.57143
2023-01-10T06:25:12.815Z,566.22222
2023-01-10T06:30:14.418Z,566.22222
2023-01-10T06:35:16.443Z,572.57143
2023-01-10T06:40:18.245Z,566.22222
2023-01-10T06:45:19.969Z,572.57143
2023-01-10T06:50:21.725Z,585.66667
2023-01-10T06:55:23.374Z,579.05155
2023-01-10T07:00:25.197Z,585.66667
2023-01-10T07:05:27.031Z,592.42105
2023-01-10T07:10:28.903Z,599.31915
2023-01-10T07:15:30.642Z,592.42105
2023-01-10T07:20:32.305Z,592.42105
2023-01-10T07:25:33.879Z,592.42105
2023-01-10T07:30:35.588Z,599.31915
2023-01-10T07:35:37.177Z,613.56522
2023-01-10T07:40:38.821Z,599.31915
2023-01-10T07:45:40.439Z,620.92308
2023-01-10T07:50:42.076Z,652.04598
2023-01-10T07:55:43.693Z,652.04598
2023-01-10T08:00:45.637Z,620.92308
2023-01-10T08:05:47.302Z,620.92308
2023-01-10T08:10:49.005Z,636.13483
2023-01-10T08:15:50.880Z,628.44444
2023-01-10T08:20:53.599Z,620.92308
2023-01-10T08:25:55.358Z,628.44444
2023-01-10T08:30:57.124Z,628.44444
2023-01-10T08:35:58.834Z,628.44444
2023-01-10T08:41:01.319Z,620.92308
2023-01-10T08:46:03.043Z,636.13483
2023-01-10T08:51:06.149Z,644
2023-01-10T08:56:08.156Z,613.56522
2023-01-10T09:01:23.612Z,599.31915
2023-01-10T09:06:25.626Z,613.56522
2023-01-10T09:11:27.743Z,613.56522
2023-01-10T09:16:34.349Z,620.92308
2023-01-10T09:21:36.031Z,613.56522
2023-01-10T09:26:37.603Z,613.56522
2023-01-10T09:31:39.329Z,613.56522
2023-01-10T09:36:40.983Z,606.36559
2023-01-10T09:41:42.596Z,599.31915
2023-01-10T09:46:44.261Z,592.42105
2023-01-10T09:51:45.924Z,585.66667
2023-01-10T09:56:47.510Z,592.42105
2023-01-10T10:01:49.226Z,599.31915
2023-01-10T10:06:50.911Z,613.56522
2023-01-10T10:11:52.534Z,613.56522
2023-01-10T10:16:54.139Z,620.92308
2023-01-10T10:21:55.859Z,620.92308
2023-01-10T10:26:57.513Z,628.44444
2023-01-10T10:31:59.210Z,628.44444
2023-01-10T10:37:00.923Z,644
2023-01-10T10:42:02.511Z,644
2023-01-10T10:47:04.266Z,652.04598
2023-01-10T10:52:05.906Z,652.04598
2023-01-10T10:57:07.533Z,636.13483
2023-01-10T11:02:09.175Z,636.13483
2023-01-10T11:07:10.820Z,636.13483
2023-01-10T11:12:12.472Z,628.44444
2023-01-10T11:17:14.110Z,652.04598
2023-01-10T11:22:15.705Z,644
2023-01-10T11:27:17.354Z,636.13483
2023-01-10T11:32:18.984Z,644
2023-01-10T11:37:20.634Z,660.27907
2023-01-10T11:42:22.262Z,704.49383
2023-01-10T11:47:25.195Z,695.21951
2023-01-10T11:52:26.884Z,677.33333
2023-01-10T11:57:28.551Z,652.04598
2023-01-10T12:02:30.194Z,668.70588
2023-01-10T12:07:31.857Z,660.27907
2023-01-10T12:12:33.476Z,677.33333
2023-01-10T12:17:35.113Z,668.70588
2023-01-10T12:22:36.840Z,668.70588
2023-01-10T12:27:38.477Z,660.27907
2023-01-10T12:32:40.130Z,660.27907
2023-01-10T12:37:41.804Z,668.70588
2023-01-10T12:42:43.439Z,677.33333
2023-01-10T12:47:45.124Z,668.70588
2023-01-10T12:52:47.087Z,686.16867
2023-01-10T12:57:51.596Z,686.16867
2023-01-10T13:02:53.980Z,686.16867
2023-01-10T13:07:55.675Z,704.49383
2023-01-10T13:12:57.359Z,668.70588
2023-01-10T13:17:59.008Z,686.16867
2023-01-10T13:23:00.641Z,686.16867
2023-01-10T13:28:02.290Z,668.70588
2023-01-10T13:33:03.869Z,668.70588
2023-01-10T13:38:05.514Z,686.16867
2023-01-10T13:43:07.094Z,686.16867
2023-01-10T13:48:08.732Z,668.70588
2023-01-10T13:53:10.357Z,660.27907
2023-01-10T13:58:11.974Z,652.04598
2023-01-10T14:03:13.804Z,652.04598
2023-01-10T14:08:15.438Z,542.05825
2023-01-10T14:13:17.057Z,620.92308
2023-01-10T14:18:18.904Z,628.44444
2023-01-10T14:23:21.356Z,644
2023-01-10T14:28:23.223Z,652.04598
2023-01-10T14:33:25.005Z,628.44444
2023-01-10T14:38:26.917Z,677.33333
2023-01-10T14:43:28.687Z,668.70588
2023-01-10T14:48:30.527Z,644
2023-01-10T14:53:32.436Z,620.92308
2023-01-10T14:58:34.312Z,613.56522
2023-01-10T15:03:39.055Z,606.36559
2023-01-10T15:08:40.723Z,606.36559
2023-01-10T15:13:42.625Z,592.42105
2023-01-10T15:18:44.441Z,599.31915
2023-01-10T15:23:46.278Z,599.31915
2023-01-10T15:28:48.111Z,599.31915
2023-01-10T15:33:49.872Z,599.31915
2023-01-10T15:38:51.668Z,613.56522
2023-01-10T15:43:53.451Z,613.56522
2023-01-10T15:48:55.477Z,628.44444
2023-01-10T15:53:57.281Z,636.13483
2023-01-10T15:58:59.178Z,636.13483
2023-01-10T16:04:01.064Z,620.92308
2023-01-10T16:09:02.964Z,606.36559
2023-01-10T16:14:04.814Z,536.30769
2023-01-10T16:19:06.603Z,547.92157
2023-01-10T16:24:10.752Z,599.31915
2023-01-10T16:29:12.843Z,606.36559
2023-01-10T16:34:14.687Z,606.36559
2023-01-10T16:39:16.522Z,620.92308
2023-01-10T16:44:19.359Z,613.56522
2023-01-10T16:49:21.808Z,613.56522
2023-01-10T16:54:25.632Z,606.36559
2023-01-10T16:59:27.432Z,628.44444
2023-01-10T17:04:29.261Z,628.44444
2023-01-10T17:09:31.155Z,592.42105
2023-01-10T17:14:32.837Z,579.05155
2023-01-10T17:19:34.673Z,579.05155
2023-01-10T17:24:36.593Z,572.57143
2023-01-10T17:29:38.214Z,566.22222
2023-01-10T17:34:39.871Z,599.31915
2023-01-10T17:39:41.488Z,599.31915
2023-01-10T17:44:43.210Z,606.36559
2023-01-10T17:49:44.783Z,599.31915
2023-01-10T17:54:46.711Z,585.66667
2023-01-10T17:59:48.323Z,592.42105
2023-01-10T18:04:49.954Z,599.31915
2023-01-10T18:09:51.553Z,620.92308
2023-01-10T18:14:53.172Z,613.56522
2023-01-10T18:19:54.749Z,606.36559
2023-01-10T18:24:56.411Z,599.31915
2023-01-10T18:29:58.088Z,613.56522
2023-01-10T18:34:59.937Z,644
2023-01-10T18:40:01.559Z,613.56522
2023-01-10T18:45:03.205Z,606.36559
2023-01-10T18:50:05.054Z,660.27907
2023-01-10T18:55:06.645Z,644
2023-01-10T19:00:08.325Z,636.13483
2023-01-10T19:05:09.953Z,686.16867
2023-01-10T19:10:11.560Z,660.27907
2023-01-10T19:15:13.267Z,644
2023-01-10T19:20:14.891Z,620.92308
2023-01-10T19:25:16.717Z,620.92308
2023-01-10T19:30:18.420Z,628.44444
2023-01-10T19:35:20.272Z,628.44444
2023-01-10T19:40:21.864Z,644
2023-01-10T19:45:24.493Z,620.92308
2023-01-10T19:50:26.194Z,620.92308
2023-01-10T19:55:27.940Z,636.13483
2023-01-10T20:00:29.633Z,628.44444
2023-01-10T20:05:31.307Z,628.44444
2023-01-10T20:10:32.979Z,620.92308
2023-01-10T20:15:34.655Z,628.44444
2023-01-10T20:20:36.444Z,636.13483
2023-01-10T20:25:38.191Z,620.92308
2023-01-10T20:30:39.791Z,613.56522
2023-01-10T20:35:41.414Z,613.56522
2023-01-10T20:40:43.267Z,606.36559
2023-01-10T20:45:45.077Z,613.56522
2023-01-10T20:50:46.820Z,644
2023-01-10T20:55:59.167Z,620.92308
2023-01-10T21:01:01.674Z,613.56522
2023-01-10T21:06:03.317Z,668.70588
2023-01-10T21:11:04.962Z,714
2023-01-10T21:16:06.676Z,714
2023-01-10T21:21:08.357Z,668.70588
2023-01-10T21:26:09.986Z,686.16867
2023-01-10T21:31:11.671Z,704.49383
2023-01-10T21:36:13.349Z,652.04598
2023-01-10T21:41:15.237Z,644
2023-01-10T21:46:17.053Z,628.44444
2023-01-10T21:51:18.849Z,660.27907
2023-01-10T21:56:20.541Z,644
2023-01-10T22:01:22.265Z,644
2023-01-10T22:06:24.016Z,677.33333
2023-01-10T22:11:25.628Z,652.04598
2023-01-10T22:16:27.327Z,636.13483
2023-01-10T22:21:29.102Z,660.27907
2023-01-10T22:26:30.730Z,668.70588
2023-01-10T22:31:32.518Z,644
2023-01-10T22:36:34.393Z,668.70588
2023-01-10T22:41:36.037Z,652.04598
2023-01-10T22:46:37.681Z,644
2023-01-10T22:51:39.316Z,636.13483
2023-01-10T22:56:41.113Z,620.92308
2023-01-10T23:01:42.727Z,628.44444
2023-01-10T23:06:44.462Z,592.42105
2023-01-10T23:11:46.322Z,542.05825
2023-01-10T23:16:48.165Z,530.66667
2023-01-10T23:21:49.854Z,553.90099
2023-01-10T23:26:51.498Z,509.13761
2023-01-10T23:31:53.231Z,519.70093
2023-01-10T23:36:54.849Z,542.05825
2023-01-10T23:41:56.493Z,553.90099
2023-01-10T23:46:58.144Z,547.92157
2023-01-10T23:51:59.917Z,553.90099
2023-01-10T23:57:01.593Z,536.30769
